createdAt,value
2023-03-03T00:01:50.658Z,78.84
2023-03-03T00:04:17.759Z,78.59
2023-03-03T00:06:46.085Z,79.88
2023-03-03T00:09:13.205Z,78.83
2023-03-03T00:11:40.302Z,79.74
2023-03-03T00:14:22.295Z,78.68
2023-03-03T00:16:50.028Z,79.07
2023-03-03T00:19:19.961Z,79.51
2023-03-03T00:21:49.073Z,78.99
2023-03-03T00:24:36.892Z,79.54
2023-03-03T00:27:27.548Z,79.52
2023-03-03T00:29:57.233Z,79.25
2023-03-03T00:32:24.383Z,76.93
2023-03-03T00:34:53.672Z,79.78
2023-03-03T00:37:27.460Z,78.88
2023-03-03T00:40:13.958Z,76.44
2023-03-03T00:42:41.442Z,76.08
2023-03-03T00:45:31.676Z,76.72
2023-03-03T00:47:59.422Z,77.28
2023-03-03T00:50:36.052Z,75.89
2023-03-03T00:53:12.843Z,75.48
2023-03-03T00:55:40.669Z,74.90
2023-03-03T00:58:08.148Z,74.26
2023-03-03T01:00:41.932Z,75.78
2023-03-03T01:03:16.351Z,73.78
2023-03-03T01:05:44.042Z,73.34
2023-03-03T01:08:11.974Z,72.76
2023-03-03T01:10:51.309Z,72.37
2023-03-03T01:13:20.957Z,72.38
2023-03-03T01:15:48.313Z,72.74
2023-03-03T01:18:15.681Z,72.55
2023-03-03T01:20:43.198Z,71.92
2023-03-03T01:23:10.708Z,73.51
2023-03-03T01:25:38.006Z,72.93
2023-03-03T01:28:05.933Z,72.47
2023-03-03T01:30:33.126Z,71.76
2023-03-03T01:33:00.217Z,72.01
2023-03-03T01:35:27.574Z,71.91
2023-03-03T01:37:54.682Z,72.24
2023-03-03T01:40:24.834Z,72.44
2023-03-03T01:42:52.967Z,72.29
2023-03-03T01:45:27.152Z,72.02
2023-03-03T01:48:00.569Z,74.19
2023-03-03T01:50:39.903Z,72.52
2023-03-03T01:53:13.856Z,73.36
2023-03-03T01:55:42.767Z,74.33
2023-03-03T01:58:21.341Z,76.57
2023-03-03T02:00:53.396Z,76.76
2023-03-03T02:03:22.856Z,75.35
2023-03-03T02:05:52.240Z,76.40
2023-03-03T02:08:27.353Z,75.18
2023-03-03T02:10:56.050Z,74.24
2023-03-03T02:13:25.529Z,74.95
2023-03-03T02:15:57.006Z,77.07
2023-03-03T02:18:25.136Z,76.82
2023-03-03T02:21:04.427Z,75.33
2023-03-03T02:23:34.362Z,74.73
2023-03-03T02:26:12.496Z,74.10
2023-03-03T02:28:41.135Z,73.80
2023-03-03T02:31:15.935Z,72.52
2023-03-03T02:33:47.382Z,73.33
2023-03-03T02:36:17.393Z,72.87
2023-03-03T02:38:50.050Z,72.96
2023-03-03T02:41:22.960Z,72.45
2023-03-03T02:44:01.243Z,72.45
2023-03-03T02:46:37.009Z,72.73
2023-03-03T02:49:05.770Z,72.42
2023-03-03T02:51:33.603Z,72.90
2023-03-03T02:54:02.129Z,71.71
2023-03-03T02:56:31.786Z,72.40
2023-03-03T02:58:59.226Z,74.39
2023-03-03T03:01:28.004Z,75.00
2023-03-03T03:03:55.306Z,73.33
2023-03-03T03:06:23.487Z,73.50
2023-03-03T03:08:50.663Z,73.60
2023-03-03T03:11:17.757Z,72.94
2023-03-03T03:13:45.116Z,72.67
2023-03-03T03:16:13.057Z,74.48
2023-03-03T03:18:40.165Z,74.19
2023-03-03T03:21:12.305Z,72.54
2023-03-03T03:23:41.181Z,72.58
2023-03-03T03:26:08.693Z,72.19
2023-03-03T03:28:36.529Z,73.12
2023-03-03T03:31:05.297Z,73.56
2023-03-03T03:33:34.373Z,73.69
2023-03-03T03:36:02.168Z,72.87
2023-03-03T03:38:30.125Z,72.60
2023-03-03T03:40:58.172Z,73.33
2023-03-03T03:43:25.836Z,72.73
2023-03-03T03:45:53.465Z,74.49
2023-03-03T03:48:20.975Z,75.68
2023-03-03T03:50:49.840Z,75.12
2023-03-03T03:53:18.292Z,76.00
2023-03-03T03:55:47.305Z,75.47
2023-03-03T03:58:17.305Z,75.55
2023-03-03T04:00:48.884Z,75.35
2023-03-03T04:03:17.053Z,75.52
2023-03-03T04:05:46.196Z,75.70
2023-03-03T04:08:13.632Z,75.14
2023-03-03T04:10:42.898Z,75.81
2023-03-03T04:13:10.091Z,76.30
2023-03-03T04:15:37.366Z,76.20
2023-03-03T04:18:04.740Z,75.27
2023-03-03T04:20:31.925Z,75.19
2023-03-03T04:22:59.140Z,74.52
2023-03-03T04:25:26.761Z,75.63
2023-03-03T04:27:54.884Z,75.35
2023-03-03T04:30:23.262Z,75.32
2023-03-03T04:32:54.283Z,74.83
2023-03-03T04:35:24.266Z,76.65
2023-03-03T04:37:51.417Z,75.29
2023-03-03T04:40:18.661Z,74.52
2023-03-03T04:42:48.514Z,74.60
2023-03-03T04:45:15.771Z,74.86
2023-03-03T04:47:42.932Z,75.29
2023-03-03T04:50:11.013Z,75.06
2023-03-03T04:52:38.247Z,75.16
2023-03-03T04:55:10.282Z,75.11
2023-03-03T04:57:38.642Z,75.31
2023-03-03T05:00:06.880Z,74.26
2023-03-03T05:02:34.108Z,74.28
2023-03-03T05:05:01.485Z,73.24
2023-03-03T05:07:28.604Z,73.25
2023-03-03T05:09:55.733Z,73.33
2023-03-03T05:12:23.024Z,74.02
2023-03-03T05:14:50.159Z,75.98
2023-03-03T05:17:17.213Z,75.50
2023-03-03T05:19:44.385Z,76.43
2023-03-03T05:22:11.533Z,76.62
2023-03-03T05:24:38.675Z,74.87
2023-03-03T05:27:05.840Z,74.73
2023-03-03T05:29:33.646Z,74.22
2023-03-03T05:32:01.508Z,74.06
2023-03-03T05:34:28.768Z,74.01
2023-03-03T05:36:55.842Z,73.31
2023-03-03T05:39:23.496Z,73.94
2023-03-03T05:41:50.736Z,72.52
2023-03-03T05:44:20.514Z,74.35
2023-03-03T05:46:47.758Z,73.26
2023-03-03T05:49:14.806Z,72.16
2023-03-03T05:51:41.848Z,71.64
2023-03-03T05:54:09.050Z,71.33
2023-03-03T05:56:36.174Z,70.90
2023-03-03T05:59:03.704Z,71.45
2023-03-03T06:01:30.880Z,71.59
2023-03-03T06:03:58.025Z,71.63
2023-03-03T06:06:25.223Z,70.96
2023-03-03T06:08:56.857Z,70.33
2023-03-03T06:11:24.367Z,70.45
2023-03-03T06:13:51.622Z,69.37
2023-03-03T06:16:19.275Z,69.40
2023-03-03T06:18:46.523Z,68.83
2023-03-03T06:21:13.748Z,68.15
2023-03-03T06:23:41.355Z,70.19
2023-03-03T06:26:08.711Z,69.93
2023-03-03T06:28:35.885Z,69.02
2023-03-03T06:31:03.015Z,67.25
2023-03-03T06:33:30.282Z,67.79
2023-03-03T06:35:57.477Z,67.50
2023-03-03T06:38:24.720Z,67.24
2023-03-03T06:40:51.767Z,69.97
2023-03-03T06:43:18.998Z,71.21
2023-03-03T06:45:46.855Z,70.01
2023-03-03T06:48:13.987Z,69.43
2023-03-03T06:50:41.068Z,68.53
2023-03-03T06:53:16.184Z,68.22
2023-03-03T06:55:45.126Z,67.84
2023-03-03T06:58:18.040Z,67.10
2023-03-03T07:00:58.486Z,66.58
2023-03-03T07:03:29.830Z,66.83
2023-03-03T07:05:57.967Z,66.24
2023-03-03T07:08:26.301Z,65.75
2023-03-03T07:10:54.340Z,67.24
2023-03-03T07:13:26.087Z,66.91
2023-03-03T07:15:54.909Z,67.09
2023-03-03T07:18:37.528Z,67.84
2023-03-03T07:21:16.874Z,68.37
2023-03-03T07:23:46.216Z,69.14
2023-03-03T07:26:16.329Z,68.95
2023-03-03T07:28:51.759Z,67.57
2023-03-03T07:31:27.802Z,68.17
2023-03-03T07:33:55.919Z,69.04
2023-03-03T07:36:36.437Z,67.99
2023-03-03T07:39:26.311Z,67.95
2023-03-03T07:42:00.661Z,66.75
2023-03-03T07:44:35.920Z,64.67
2023-03-03T07:47:25.397Z,67.04
2023-03-03T07:49:55.766Z,68.73
2023-03-03T07:52:41.722Z,67.83
2023-03-03T07:55:28.756Z,65.52
2023-03-03T07:57:59.134Z,64.21
2023-03-03T08:00:29.306Z,61.99
2023-03-03T08:02:58.800Z,61.61
2023-03-03T08:05:36.765Z,59.77
2023-03-03T08:08:22.135Z,58.92
2023-03-03T08:10:52.848Z,58.80
2023-03-03T08:13:22.608Z,59.70
2023-03-03T08:15:57.473Z,59.14
2023-03-03T08:18:36.962Z,56.29
2023-03-03T08:21:24.976Z,57.65
2023-03-03T08:23:53.828Z,58.26
2023-03-03T08:26:22.334Z,56.83
2023-03-03T08:28:49.949Z,57.39
2023-03-03T08:31:30.793Z,56.19
2023-03-03T08:34:05.441Z,53.66
2023-03-03T08:36:34.598Z,51.19
2023-03-03T08:39:02.305Z,51.36
2023-03-03T08:41:29.435Z,47.82
2023-03-03T08:43:56.566Z,46.93
2023-03-03T08:46:23.858Z,49.10
2023-03-03T08:48:51.530Z,49.48
2023-03-03T08:51:18.623Z,45.73
2023-03-03T08:53:45.691Z,44.12
2023-03-03T08:56:12.969Z,44.03
2023-03-03T08:58:49.895Z,41.90
2023-03-03T09:01:27.207Z,43.17
2023-03-03T09:03:54.354Z,46.00
2023-03-03T09:06:21.593Z,48.03
2023-03-03T09:08:49.499Z,48.65
2023-03-03T09:11:27.618Z,51.52
2023-03-03T09:14:05.020Z,52.28
2023-03-03T09:16:39.102Z,52.67
2023-03-03T09:19:37.542Z,51.61
2023-03-03T09:22:36.820Z,49.36
2023-03-03T09:25:32.016Z,50.80
2023-03-03T09:28:00.115Z,51.46
2023-03-03T09:30:28.254Z,49.24
2023-03-03T09:32:57.346Z,48.25
2023-03-03T09:35:36.154Z,46.20
2023-03-03T09:38:26.396Z,46.00
2023-03-03T09:41:37.686Z,47.50
2023-03-03T09:44:46.067Z,48.18
2023-03-03T09:47:22.259Z,49.11
2023-03-03T09:50:08.375Z,49.59
2023-03-03T09:52:41.475Z,45.16
2023-03-03T09:55:57.937Z,47.27
2023-03-03T09:58:45.842Z,50.78
2023-03-03T10:01:37.180Z,50.90
2023-03-03T10:04:07.458Z,50.69
2023-03-03T10:06:45.840Z,53.01
2023-03-03T10:09:40.160Z,51.17
2023-03-03T10:12:35.688Z,49.01
2023-03-03T10:15:02.684Z,47.77
2023-03-03T10:17:29.782Z,46.32
2023-03-03T10:20:02.732Z,48.53
2023-03-03T10:22:46.390Z,50.79
2023-03-03T10:25:38.221Z,48.24
2023-03-03T10:28:37.303Z,50.34
2023-03-03T10:31:29.267Z,47.93
2023-03-03T10:34:08.166Z,51.08
2023-03-03T10:36:55.566Z,52.32
2023-03-03T10:39:31.569Z,53.28
2023-03-03T10:42:22.508Z,51.96
2023-03-03T10:45:21.618Z,51.13
2023-03-03T10:48:10.491Z,52.24
2023-03-03T10:51:02.357Z,54.83
2023-03-03T10:53:41.164Z,57.23
2023-03-03T10:56:26.315Z,55.02
2023-03-03T10:59:05.377Z,55.57
2023-03-03T11:01:39.235Z,57.28
2023-03-03T11:04:25.161Z,55.95
2023-03-03T11:07:13.165Z,53.46
2023-03-03T11:09:45.057Z,52.69
2023-03-03T11:12:38.183Z,51.54
2023-03-03T11:15:30.954Z,51.58
2023-03-03T11:18:10.114Z,51.60
2023-03-03T11:20:52.991Z,50.70
2023-03-03T11:23:35.236Z,49.20
2023-03-03T11:26:14.972Z,47.83
2023-03-03T11:29:11.760Z,49.12
2023-03-03T11:31:47.088Z,53.87
2023-03-03T11:34:19.919Z,59.36
2023-03-03T11:36:55.679Z,54.17
2023-03-03T11:39:29.062Z,54.30
2023-03-03T11:42:47.469Z,53.21
2023-03-03T11:45:20.056Z,55.57
2023-03-03T11:48:09.238Z,54.02
2023-03-03T11:50:44.224Z,50.61
2023-03-03T11:53:49.004Z,49.57
2023-03-03T11:56:42.207Z,48.45
2023-03-03T11:59:12.047Z,46.99
2023-03-03T12:02:17.547Z,46.79
2023-03-03T12:04:56.403Z,48.69
2023-03-03T12:07:35.643Z,48.22
2023-03-03T12:10:15.159Z,46.04
2023-03-03T12:12:51.872Z,48.24
2023-03-03T12:15:33.956Z,48.46
2023-03-03T12:18:27.169Z,48.43
2023-03-03T12:21:03.476Z,50.09
2023-03-03T12:24:12.434Z,52.61
2023-03-03T12:27:03.655Z,53.91
2023-03-03T12:29:41.920Z,54.20
2023-03-03T12:32:23.529Z,56.99
2023-03-03T12:35:13.885Z,58.67
2023-03-03T12:37:59.745Z,61.36
2023-03-03T12:40:37.326Z,64.09
2023-03-03T12:43:23.148Z,64.98
2023-03-03T12:46:10.371Z,67.09
2023-03-03T12:48:45.910Z,67.21
2023-03-03T12:51:31.585Z,68.23
2023-03-03T12:54:23.098Z,67.71
2023-03-03T12:57:04.089Z,67.57
2023-03-03T12:59:53.557Z,69.64
2023-03-03T13:02:41.333Z,69.30
2023-03-03T13:05:27.628Z,70.47
2023-03-03T13:08:18.947Z,71.35
2023-03-03T13:11:01.797Z,70.60
2023-03-03T13:14:12.857Z,69.35
2023-03-03T13:17:08.982Z,70.73
2023-03-03T13:19:48.571Z,69.34
2023-03-03T13:22:31.396Z,68.99
2023-03-03T13:25:27.589Z,69.88
2023-03-03T13:28:02.593Z,70.36
2023-03-03T13:30:40.488Z,70.36
2023-03-03T13:33:27.469Z,70.90
2023-03-03T13:36:00.179Z,67.04
2023-03-03T13:38:32.787Z,67.75
2023-03-03T13:41:25.051Z,71.42
2023-03-03T13:43:57.730Z,71.38
2023-03-03T13:46:41.661Z,71.25
2023-03-03T13:49:20.378Z,72.94
2023-03-03T13:52:08.208Z,74.17
2023-03-03T13:54:53.605Z,74.76
2023-03-03T13:57:40.282Z,75.45
2023-03-03T14:00:22.231Z,76.16
2023-03-03T14:03:23.342Z,75.52
2023-03-03T14:06:02.408Z,74.40
2023-03-03T14:08:32.311Z,76.42
2023-03-03T14:11:28.448Z,76.06
2023-03-03T14:14:12.628Z,76.32
2023-03-03T14:16:55.740Z,75.33
2023-03-03T14:19:33.330Z,76.70
2023-03-03T14:22:12.345Z,78.37
2023-03-03T14:25:01.841Z,76.73
2023-03-03T14:27:42.014Z,75.54
2023-03-03T14:30:33.299Z,74.58
2023-03-03T14:33:09.469Z,75.21
2023-03-03T14:35:41.402Z,76.38
2023-03-03T14:38:08.907Z,76.91
2023-03-03T14:40:39.203Z,78.11
2023-03-03T14:43:26.722Z,80.60
2023-03-03T14:45:55.198Z,82.73
2023-03-03T14:48:23.360Z,82.48
2023-03-03T14:51:04.841Z,83.36
2023-03-03T14:53:36.034Z,85.19
2023-03-03T14:56:25.156Z,85.95
2023-03-03T14:58:54.389Z,86.21
2023-03-03T15:01:24.551Z,86.36
2023-03-03T15:03:57.692Z,87.29
2023-03-03T15:06:52.063Z,86.75
2023-03-03T15:09:27.661Z,86.25
2023-03-03T15:11:56.913Z,85.55
2023-03-03T15:14:38.830Z,85.01
2023-03-03T15:17:26.792Z,84.93
2023-03-03T15:20:38.311Z,86.12
2023-03-03T15:23:08.161Z,87.71
2023-03-03T15:25:54.989Z,89.30
2023-03-03T15:28:43.267Z,88.64
2023-03-03T15:31:27.493Z,90.00
2023-03-03T15:34:23.112Z,90.40
2023-03-03T15:37:07.721Z,92.25
2023-03-03T15:39:54.047Z,93.40
2023-03-03T15:42:35.923Z,93.45
2023-03-03T15:45:16.005Z,93.46
2023-03-03T15:48:16.976Z,94.60
2023-03-03T15:51:06.872Z,95.02
2023-03-03T15:54:01.784Z,96.71
2023-03-03T15:56:48.044Z,96.73
2023-03-03T15:59:46.623Z,96.84
2023-03-03T16:02:39.664Z,98.94
2023-03-03T16:05:20.777Z,98.48
2023-03-03T16:08:01.056Z,98.92
2023-03-03T16:10:40.470Z,100.00
2023-03-03T16:13:25.852Z,100.00
2023-03-03T16:15:56.027Z,100.00
2023-03-03T16:18:58.532Z,99.00
2023-03-03T16:22:03.186Z,99.87
2023-03-03T16:24:48.608Z,100.00
2023-03-03T16:27:49.087Z,100.00
2023-03-03T16:30:43.593Z,100.00
2023-03-03T16:33:38.040Z,100.00
2023-03-03T16:36:23.435Z,100.00
2023-03-03T16:39:13.333Z,96.93
2023-03-03T16:42:12.388Z,96.19
2023-03-03T16:44:47.983Z,95.69
2023-03-03T16:47:36.996Z,92.04
2023-03-03T16:50:13.235Z,91.93
2023-03-03T16:53:14.810Z,90.43
2023-03-03T16:56:08.338Z,90.42
2023-03-03T16:58:49.164Z,91.64
2023-03-03T17:01:56.424Z,93.01
2023-03-03T17:05:06.642Z,94.25
2023-03-03T17:08:10.944Z,95.01
2023-03-03T17:10:53.952Z,95.00
2023-03-03T17:13:47.106Z,95.99
2023-03-03T17:16:21.472Z,96.06
2023-03-03T17:19:05.937Z,98.35
2023-03-03T17:21:50.352Z,99.60
2023-03-03T17:24:51.748Z,98.29
2023-03-03T17:27:28.326Z,96.54
2023-03-03T17:30:14.042Z,95.04
2023-03-03T17:32:49.591Z,94.44
2023-03-03T17:35:59.513Z,92.33
2023-03-03T17:39:04.311Z,93.74
2023-03-03T17:41:51.603Z,93.97
2023-03-03T17:45:06.643Z,93.89
2023-03-03T17:47:55.947Z,93.50
2023-03-03T17:50:57.452Z,95.03
2023-03-03T17:54:16.860Z,95.58
2023-03-03T17:56:50.745Z,95.89
2023-03-03T17:59:47.994Z,96.81
2023-03-03T18:02:21.103Z,96.65
2023-03-03T18:05:18.808Z,95.57
2023-03-03T18:08:09.948Z,96.05
2023-03-03T18:11:01.768Z,95.78
2023-03-03T18:13:35.222Z,97.03
2023-03-03T18:16:18.797Z,96.92
2023-03-03T18:19:12.919Z,94.32
2023-03-03T18:21:48.830Z,91.94
2023-03-03T18:24:51.161Z,91.68
2023-03-03T18:27:24.211Z,91.17
2023-03-03T18:30:18.768Z,90.64
2023-03-03T18:33:01.364Z,91.23
2023-03-03T18:35:33.995Z,90.99
2023-03-03T18:38:16.286Z,92.14
2023-03-03T18:41:04.662Z,94.87
2023-03-03T18:43:43.792Z,96.02
2023-03-03T18:46:23.889Z,96.76
2023-03-03T18:48:54.230Z,97.17
2023-03-03T18:51:39.466Z,96.72
2023-03-03T18:54:12.772Z,96.83
2023-03-03T18:57:00.682Z,96.94
2023-03-03T18:59:30.689Z,97.61
2023-03-03T19:02:12.623Z,99.55
2023-03-03T19:04:55.786Z,100.00
2023-03-03T19:07:27.914Z,100.00
2023-03-03T19:10:01.668Z,99.05
2023-03-03T19:12:44.398Z,97.44
2023-03-03T19:15:29.809Z,96.18
2023-03-03T19:18:03.454Z,94.55
2023-03-03T19:20:43.436Z,94.19
2023-03-03T19:23:20.447Z,93.09
2023-03-03T19:26:25.324Z,92.33
2023-03-03T19:29:11.965Z,93.73
2023-03-03T19:32:17.119Z,93.60
2023-03-03T19:35:08.563Z,93.18
2023-03-03T19:37:41.431Z,91.86
2023-03-03T19:40:20.935Z,92.90
2023-03-03T19:42:50.674Z,92.06
2023-03-03T19:45:32.108Z,90.73
2023-03-03T19:48:15.266Z,90.85
2023-03-03T19:51:02.109Z,90.39
2023-03-03T19:53:51.051Z,90.28
2023-03-03T19:56:29.823Z,89.91
2023-03-03T19:59:09.968Z,90.77
2023-03-03T20:01:59.641Z,90.25
2023-03-03T20:04:45.156Z,90.12
2023-03-03T20:07:33.930Z,91.25
2023-03-03T20:10:06.758Z,91.97
2023-03-03T20:12:53.407Z,93.17
2023-03-03T20:15:28.563Z,92.40
2023-03-03T20:18:01.926Z,92.11
2023-03-03T20:20:55.617Z,92.80
2023-03-03T20:23:37.337Z,91.81
2023-03-03T20:26:28.189Z,94.47
2023-03-03T20:29:36.701Z,94.94
2023-03-03T20:32:20.895Z,94.75
2023-03-03T20:35:09.722Z,94.30
2023-03-03T20:38:07.127Z,94.19
2023-03-03T20:40:44.136Z,93.41
2023-03-03T20:43:48.346Z,92.22
2023-03-03T20:47:09.461Z,94.19
2023-03-03T20:50:24.562Z,96.58
2023-03-03T20:52:57.460Z,99.85
2023-03-03T20:55:47.806Z,98.61
2023-03-03T20:58:36.509Z,96.81
2023-03-03T21:01:32.899Z,97.65
2023-03-03T21:04:19.937Z,95.83
2023-03-03T21:06:48.237Z,94.50
2023-03-03T21:09:28.101Z,93.68
2023-03-03T21:11:56.544Z,92.74
2023-03-03T21:14:34.281Z,92.56
2023-03-03T21:17:11.713Z,92.26
2023-03-03T21:19:38.770Z,91.75
2023-03-03T21:22:06.039Z,91.87
2023-03-03T21:24:55.527Z,92.14
2023-03-03T21:27:27.265Z,94.94
2023-03-03T21:30:12.506Z,94.67
2023-03-03T21:32:48.266Z,94.25
2023-03-03T21:35:19.051Z,94.35
2023-03-03T21:37:53.726Z,93.30
2023-03-03T21:40:27.609Z,93.97
2023-03-03T21:42:57.271Z,93.74
2023-03-03T21:45:24.800Z,93.96
2023-03-03T21:47:54.974Z,93.27
2023-03-03T21:50:22.279Z,92.65
2023-03-03T21:52:49.506Z,92.87
2023-03-03T21:55:16.588Z,91.98
2023-03-03T21:57:43.678Z,93.22
2023-03-03T22:00:11.942Z,94.48
2023-03-03T22:02:38.994Z,95.19
2023-03-03T22:05:07.750Z,94.89
2023-03-03T22:07:34.928Z,95.19
2023-03-03T22:10:03.130Z,97.55
2023-03-03T22:12:30.208Z,97.14
2023-03-03T22:14:57.288Z,97.51
2023-03-03T22:17:25.640Z,97.64
2023-03-03T22:19:52.978Z,99.28
2023-03-03T22:22:20.082Z,99.83
2023-03-03T22:24:47.382Z,100.00
2023-03-03T22:27:14.671Z,100.00
2023-03-03T22:29:41.704Z,100.00
2023-03-03T22:32:08.917Z,100.00
2023-03-03T22:34:36.321Z,100.00
2023-03-03T22:37:03.459Z,100.00
2023-03-03T22:39:30.601Z,100.00
2023-03-03T22:41:57.749Z,100.00
2023-03-03T22:44:24.886Z,100.00
2023-03-03T22:46:51.952Z,100.00
2023-03-03T22:49:19.032Z,100.00
2023-03-03T22:51:46.138Z,100.00
2023-03-03T22:54:13.199Z,100.00
2023-03-03T22:56:40.300Z,100.00
2023-03-03T22:59:07.443Z,100.00
2023-03-03T23:01:34.654Z,100.00
2023-03-03T23:04:01.720Z,100.00
2023-03-03T23:06:28.798Z,100.00
2023-03-03T23:08:55.906Z,100.00
2023-03-03T23:11:24.765Z,100.00
2023-03-03T23:13:51.789Z,100.00
2023-03-03T23:16:19.022Z,100.00
2023-03-03T23:18:46.424Z,100.00
2023-03-03T23:21:13.511Z,100.00
2023-03-03T23:23:40.537Z,100.00
2023-03-03T23:26:07.638Z,100.00
2023-03-03T23:28:34.865Z,100.00
2023-03-03T23:31:02.192Z,100.00
2023-03-03T23:33:29.316Z,100.00
2023-03-03T23:35:56.393Z,100.00
2023-03-03T23:38:23.469Z,100.00
2023-03-03T23:40:50.568Z,100.00
2023-03-03T23:43:17.636Z,100.00
2023-03-03T23:45:45.221Z,100.00
2023-03-03T23:48:12.416Z,100.00
2023-03-03T23:50:39.680Z,100.00
2023-03-03T23:53:07.863Z,100.00
2023-03-03T23:55:36.352Z,100.00
2023-03-03T23:58:04.641Z,100.00
